Webster, Michigan
Current Conditions -  °F | °C
As of 1:53 AM on Wednesday 22 Oct 2014 (Local Time) from KARB Reporting Station
Overcast Overcast  
Wind Chill: 37°   Ceiling: 1900
Heat Index: 44°   Visibility: 10mi
Dew Point: 35°   Wind: 14mph
Humidity: 71%   Direction: 360°N
Pressure: 30.22"   Gusts: 21mph
Location:  42.3528°N, 83.8974°W
Report Text: KARB 220553Z AUTO 36012G18KT 10SM OVC019 07/02 A3022 RMK AO2 SLP237 T00670017 10072 20067 51001
Loading
Personal Weather Stations






























Interactive Weather Map
Tropical Storm Tracking
New forecast layout! Learn more

10-Day Weather Forecast

Advertisements
Track Severe Weather on mobile